Time;durP1;ratioP1;P1;durP2;ratioP2;P2;SDS_P1;SDS_P2;PMS_P1;PMS_P2;Temp;Humidity;BMP_temperature;BMP_pressure;BME280_temperature;BME280_humidity;BME280_pressure;Samples;Min_cycle;Max_cycle;Signal;HPM_P1;HPM_P2
2021/04/28 00:00:27;;;;;;;;;41.75;33.25;;;;;4.08;73.17;99310.75;3591259;40;9865;-56
2021/04/28 00:02:55;;;;;;;;;45.25;37.50;;;;;4.02;73.35;99308.34;3587833;40;9373;-56
2021/04/28 00:05:24;;;;;;;;;36.25;32.00;;;;;4.70;69.68;99313.47;3589514;40;9620;-56
2021/04/28 00:07:52;;;;;;;;;30.75;21.00;;;;;4.67;71.30;99302.97;3597591;40;9613;-56
2021/04/28 00:10:26;;;;;;;;;35.50;27.75;;;;;4.66;70.29;99303.88;3597448;39;9446;-55
2021/04/28 00:12:53;;;;;;;;;45.25;33.75;;;;;4.28;72.77;99307.25;3596257;39;9651;-56
2021/04/28 00:15:25;;;;;;;;;34.25;30.50;;;;;4.53;71.53;99298.22;3596449;40;9730;-56
2021/04/28 00:17:54;;;;;;;;;39.00;31.75;;;;;4.32;72.34;99302.69;3593568;40;9632;-57
2021/04/28 00:20:23;;;;;;;;;35.25;32.75;;;;;4.79;69.58;99305.97;3587080;40;9467;-55
2021/04/28 00:22:50;;;;;;;;;40.50;29.25;;;;;4.66;69.95;99298.56;3587238;40;10032;-57
2021/04/28 00:25:23;;;;;;;;;43.75;35.75;;;;;4.67;69.80;99306.47;3587676;40;9528;-56
2021/04/28 00:27:50;;;;;;;;;41.75;34.25;;;;;4.64;69.85;99303.09;3587115;40;9530;-57
2021/04/28 00:30:19;;;;;;;;;41.50;34.75;;;;;4.34;70.45;99301.66;3593329;40;10107;-55
2021/04/28 00:32:46;;;;;;;;;46.75;34.75;;;;;4.09;72.15;99304.50;3591333;40;9636;-57
2021/04/28 00:35:15;;;;;;;;;35.00;28.25;;;;;4.01;73.05;99303.09;3590455;40;9661;-57
2021/04/28 00:37:43;;;;;;;;;39.00;35.25;;;;;4.43;69.00;99299.56;3597828;39;9801;-57
2021/04/28 00:40:28;;;;;;;;;36.25;29.25;;;;;4.42;70.81;99300.50;3599788;39;9489;-56
2021/04/28 00:42:56;;;;;;;;;37.25;30.50;;;;;3.96;73.56;99300.63;3587967;40;9733;-57
2021/04/28 00:45:25;;;;;;;;;33.75;24.50;;;;;3.99;72.09;99299.63;3591925;39;9431;-57
2021/04/28 00:47:54;;;;;;;;;36.50;32.50;;;;;3.82;71.56;99302.97;3586951;40;9693;-57
2021/04/28 00:50:35;;;;;;;;;34.50;28.75;;;;;3.43;73.07;99301.84;3593369;39;10001;-55
2021/04/28 00:53:05;;;;;;;;;34.75;28.75;;;;;3.57;72.79;99300.44;3587885;40;9647;-56
2021/04/28 00:55:33;;;;;;;;;43.00;31.50;;;;;3.47;73.08;99307.88;3587298;40;9692;-57
2021/04/28 00:58:00;;;;;;;;;38.25;31.50;;;;;2.89;75.75;99320.66;3587538;40;9308;-56
2021/04/28 01:00:28;;;;;;;;;38.50;33.00;;;;;3.35;73.71;99309.22;3591961;40;9251;-56
2021/04/28 01:02:56;;;;;;;;;38.25;33.50;;;;;3.51;73.24;99307.69;3601075;39;9220;-56
2021/04/28 01:05:23;;;;;;;;;33.25;30.00;;;;;3.10;74.79;99303.97;3592253;40;9279;-54
2021/04/28 01:07:51;;;;;;;;;34.75;28.25;;;;;3.46;73.37;99300.84;3597373;40;9445;-57
2021/04/28 01:10:30;;;;;;;;;33.75;26.50;;;;;3.13;75.34;99298.53;3595400;39;9275;-57
2021/04/28 01:12:58;;;;;;;;;29.00;26.75;;;;;3.16;74.20;99297.56;3591755;40;9228;-57
2021/04/28 01:15:32;;;;;;;;;35.50;27.00;;;;;2.80;75.01;99290.94;3590094;40;9233;-55
2021/04/28 01:18:02;;;;;;;;;41.50;32.75;;;;;2.90;75.68;99290.56;3597267;40;10144;-56
2021/04/28 01:20:35;;;;;;;;;25.00;21.50;;;;;3.06;72.99;99289.97;3591386;40;9248;-56
2021/04/28 01:23:02;;;;;;;;;26.50;22.75;;;;;3.26;73.30;99297.16;3592906;40;9413;-54
2021/04/28 01:25:29;;;;;;;;;16.25;15.00;;;;;3.19;71.45;99298.34;3586801;40;9247;-56
2021/04/28 01:28:14;;;;;;;;;38.50;23.00;;;;;3.22;69.04;99287.59;3587441;40;9258;-54
2021/04/28 01:31:12;;;;;;;;;29.25;23.25;;;;;3.56;67.43;99301.38;3593536;40;10087;-54
2021/04/28 01:33:44;;;;;;;;;27.25;24.75;;;;;3.57;67.31;99303.94;3594128;40;9689;-56
2021/04/28 01:36:29;;;;;;;;;21.25;19.25;;;;;3.46;66.19;99306.16;3594483;39;9538;-56
2021/04/28 01:39:00;;;;;;;;;24.00;18.25;;;;;3.47;64.90;99299.91;3587622;40;9476;-56
2021/04/28 01:41:28;;;;;;;;;20.00;18.25;;;;;3.39;62.73;99305.50;3601101;39;10005;-56
2021/04/28 01:43:57;;;;;;;;;18.00;13.75;;;;;3.61;61.99;99316.19;3594514;39;10694;-56
2021/04/28 01:46:28;;;;;;;;;22.75;14.75;;;;;3.86;62.32;99309.88;3586743;40;10781;-55
2021/04/28 01:48:56;;;;;;;;;19.25;14.75;;;;;3.94;58.68;99308.66;3591983;39;9646;-54
2021/04/28 01:51:23;;;;;;;;;18.00;13.75;;;;;4.32;56.00;99300.03;3605679;39;9606;-56
2021/04/28 01:53:50;;;;;;;;;17.75;12.75;;;;;4.35;55.62;99315.84;3602265;39;10478;-56
2021/04/28 01:56:18;;;;;;;;;18.50;14.50;;;;;4.40;57.19;99304.09;3593979;40;9786;-55
2021/04/28 01:58:45;;;;;;;;;16.00;13.00;;;;;4.21;56.68;99305.78;3596857;39;9709;-57
2021/04/28 02:01:12;;;;;;;;;16.00;13.50;;;;;4.15;57.08;99311.34;3589034;39;9916;-56
2021/04/28 02:03:39;;;;;;;;;14.50;12.25;;;;;4.00;56.87;99302.22;3589078;40;10018;-56
2021/04/28 02:06:07;;;;;;;;;17.25;14.00;;;;;4.24;56.95;99288.84;3591482;40;10088;-53
2021/04/28 02:08:34;;;;;;;;;20.50;16.50;;;;;4.22;56.99;99296.03;3589565;40;9662;-55
2021/04/28 02:11:04;;;;;;;;;20.25;14.75;;;;;4.09;56.87;99296.53;3590475;39;9825;-57
2021/04/28 02:13:38;;;;;;;;;18.00;14.50;;;;;4.16;58.09;99306.00;3589219;40;9725;-55
2021/04/28 02:16:06;;;;;;;;;16.00;15.50;;;;;3.86;58.89;99299.25;3595913;39;9731;-55
2021/04/28 02:18:33;;;;;;;;;17.50;13.75;;;;;3.92;56.97;99299.00;3594487;40;9905;-56
2021/04/28 02:21:04;;;;;;;;;22.25;14.25;;;;;4.05;56.22;99294.91;3588059;40;10051;-54
2021/04/28 02:23:40;;;;;;;;;22.25;17.25;;;;;4.02;56.66;99296.84;3592314;40;9811;-55
2021/04/28 02:26:07;;;;;;;;;16.50;13.25;;;;;3.89;56.99;99291.16;3596665;40;9414;-56
2021/04/28 02:28:34;;;;;;;;;16.75;12.00;;;;;3.84;56.88;99291.34;3595938;40;10412;-55
2021/04/28 02:31:01;;;;;;;;;16.25;13.50;;;;;3.79;57.51;99287.16;3589468;39;10006;-55
2021/04/28 02:33:29;;;;;;;;;15.75;15.00;;;;;3.87;57.02;99291.25;3589050;40;9817;-53
2021/04/28 02:35:57;;;;;;;;;17.50;15.50;;;;;3.88;57.22;99290.31;3593967;40;9574;-56
2021/04/28 02:38:51;;;;;;;;;17.00;10.75;;;;;3.84;56.73;99295.81;3587908;40;10069;-56
2021/04/28 02:41:18;;;;;;;;;19.75;15.25;;;;;4.04;56.51;99290.56;3596295;40;9587;-56
2021/04/28 02:43:45;;;;;;;;;20.75;14.00;;;;;3.95;56.52;99288.28;3588559;40;9591;-54
2021/04/28 02:46:15;;;;;;;;;20.50;18.50;;;;;4.03;58.72;99286.19;3589380;40;9632;-57
2021/04/28 02:48:45;;;;;;;;;18.25;12.25;;;;;3.79;59.11;99289.81;3598617;39;9886;-57
2021/04/28 02:51:13;;;;;;;;;17.50;14.00;;;;;3.74;57.90;99290.88;3599598;39;9956;-56
2021/04/28 02:53:44;;;;;;;;;15.25;13.50;;;;;3.60;59.75;99282.59;3592626;40;10165;-57
2021/04/28 02:56:16;;;;;;;;;19.00;17.25;;;;;3.48;60.04;99294.56;3589287;40;9821;-57
2021/04/28 02:58:44;;;;;;;;;17.75;15.50;;;;;3.56;58.30;99286.31;3597194;40;9743;-57
2021/04/28 03:01:11;;;;;;;;;17.75;14.00;;;;;3.38;60.11;99287.00;3604729;39;9937;-55
2021/04/28 03:03:42;;;;;;;;;14.25;14.25;;;;;3.33;62.30;99289.84;3597117;40;10058;-56
2021/04/28 03:06:11;;;;;;;;;20.25;14.00;;;;;3.28;61.46;99291.81;3588741;40;9639;-57
2021/04/28 03:08:39;;;;;;;;;18.25;14.75;;;;;3.16;62.42;99295.81;3595698;39;9597;-54
2021/04/28 03:11:06;;;;;;;;;22.50;17.25;;;;;3.21;62.10;99285.88;3587269;40;9636;-56
2021/04/28 03:13:34;;;;;;;;;16.00;12.25;;;;;3.49;60.42;99298.06;3587294;40;9479;-56
2021/04/28 03:16:01;;;;;;;;;14.50;14.50;;;;;3.34;61.59;99298.66;3590543;40;9713;-57
2021/04/28 03:18:28;;;;;;;;;18.25;16.25;;;;;3.46;60.89;99290.22;3597560;40;9701;-56
2021/04/28 03:20:59;;;;;;;;;17.00;14.00;;;;;3.03;62.24;99297.19;3597185;40;9459;-56
2021/04/28 03:23:26;;;;;;;;;18.00;14.00;;;;;2.83;64.86;99305.84;3593658;40;9559;-57
2021/04/28 03:25:54;;;;;;;;;20.25;17.00;;;;;2.83;64.93;99304.06;3597658;39;9422;-55
2021/04/28 03:28:21;;;;;;;;;22.25;17.75;;;;;3.02;64.85;99309.56;3593114;40;9472;-54
2021/04/28 03:30:48;;;;;;;;;12.50;7.25;;;;;2.58;65.85;99300.56;3587879;40;9615;-58
2021/04/28 03:33:15;;;;;;;;;14.00;11.00;;;;;2.72;64.73;99302.72;3588279;40;9528;-55
2021/04/28 03:35:43;;;;;;;;;20.25;17.00;;;;;2.66;65.60;99297.63;3597971;39;9360;-54
2021/04/28 03:38:10;;;;;;;;;19.50;17.00;;;;;2.60;66.08;99301.38;3597300;39;9735;-56
2021/04/28 03:40:37;;;;;;;;;22.25;15.00;;;;;2.75;66.20;99302.63;3587685;40;9243;-56
2021/04/28 03:43:04;;;;;;;;;16.25;13.75;;;;;2.67;66.94;99309.97;3588139;40;9673;-56
2021/04/28 03:45:32;;;;;;;;;19.25;11.00;;;;;2.58;67.01;99305.84;3592965;40;9432;-56
2021/04/28 03:47:59;;;;;;;;;20.50;16.00;;;;;2.70;66.13;99309.88;3596493;39;9768;-57
2021/04/28 03:50:26;;;;;;;;;23.00;14.50;;;;;2.57;68.76;99305.00;3597687;39;9507;-55
2021/04/28 03:53:05;;;;;;;;;22.75;18.00;;;;;2.51;65.48;99318.47;3588698;40;9314;-55
2021/04/28 03:55:32;;;;;;;;;16.75;15.25;;;;;2.84;66.74;99319.06;3590814;39;9287;-57
2021/04/28 03:57:59;;;;;;;;;21.00;16.00;;;;;3.04;65.56;99312.16;3596700;40;9395;-56
2021/04/28 04:00:26;;;;;;;;;17.50;16.50;;;;;2.92;64.52;99320.56;3597750;39;9814;-57
2021/04/28 04:02:53;;;;;;;;;22.75;17.25;;;;;3.03;64.75;99323.69;3597759;39;9288;-54
2021/04/28 04:05:20;;;;;;;;;25.50;19.75;;;;;2.57;67.02;99323.53;3587279;40;9356;-55
2021/04/28 04:07:47;;;;;;;;;21.00;18.25;;;;;2.25;69.03;99326.44;3590478;40;9324;-55
2021/04/28 04:10:14;;;;;;;;;18.75;16.50;;;;;3.02;66.06;99316.66;3588166;40;9314;-56
2021/04/28 04:12:41;;;;;;;;;20.75;17.25;;;;;2.67;67.69;99316.13;3587663;40;9714;-56
2021/04/28 04:15:09;;;;;;;;;17.00;14.50;;;;;2.44;68.08;99313.44;3588016;40;9336;-57
2021/04/28 04:17:36;;;;;;;;;22.50;17.00;;;;;3.22;66.16;99314.13;3587472;40;9723;-56
2021/04/28 04:20:05;;;;;;;;;21.25;20.00;;;;;3.01;67.25;99314.94;3595650;39;9249;-57
2021/04/28 04:22:32;;;;;;;;;17.25;15.25;;;;;3.30;66.49;99321.81;3597295;39;9531;-56
2021/04/28 04:24:59;;;;;;;;;25.50;18.50;;;;;3.38;66.98;99321.50;3588004;40;9494;-57
2021/04/28 04:27:26;;;;;;;;;23.75;19.25;;;;;3.58;67.59;99326.94;3587608;40;10482;-57
2021/04/28 04:29:53;;;;;;;;;20.75;16.25;;;;;4.17;63.68;99328.97;3587451;40;9596;-56
2021/04/28 04:32:20;;;;;;;;;21.25;18.75;;;;;4.02;62.60;99320.75;3587373;40;10016;-57
2021/04/28 04:34:47;;;;;;;;;23.25;20.75;;;;;4.45;59.83;99319.84;3592682;40;10659;-56
2021/04/28 04:37:14;;;;;;;;;27.75;19.25;;;;;4.80;57.33;99328.09;3589129;39;9917;-57
2021/04/28 04:39:41;;;;;;;;;17.75;14.25;;;;;4.89;57.73;99334.78;3587476;40;9989;-57
2021/04/28 04:42:10;;;;;;;;;25.00;19.75;;;;;5.19;56.70;99333.44;3587068;40;10168;-54
2021/04/28 04:44:37;;;;;;;;;22.00;20.25;;;;;6.32;52.51;99329.88;3587071;40;10253;-57
2021/04/28 04:47:03;;;;;;;;;21.00;16.00;;;;;10.00;43.42;99331.97;3587452;40;10185;-57
2021/04/28 04:49:30;;;;;;;;;33.00;25.33;;;;;9.11;44.73;99340.28;3598088;39;10107;-58
2021/04/28 04:51:58;;;;;;;;;23.33;22.33;;;;;7.80;49.21;99341.63;3607598;39;9960;-57
2021/04/28 04:54:25;;;;;;;;;23.33;18.33;;;;;9.42;45.83;99341.03;3607501;39;9905;-57
2021/04/28 04:56:52;;;;;;;;;22.67;18.67;;;;;9.80;43.52;99346.69;3601666;39;9984;-58
2021/04/28 04:59:19;;;;;;;;;20.33;16.00;;;;;8.46;47.05;99343.25;3599713;39;9864;-58
2021/04/28 05:01:46;;;;;;;;;20.67;19.00;;;;;7.54;49.53;99337.72;3596938;39;9867;-58
2021/04/28 05:04:13;;;;;;;;;22.33;18.00;;;;;7.04;49.98;99342.16;3594167;39;9882;-58
2021/04/28 05:06:40;;;;;;;;;23.00;19.00;;;;;8.30;47.36;99329.03;3586381;40;10192;-58
2021/04/28 05:09:07;;;;;;;;;16.00;14.33;;;;;8.92;45.93;99334.28;3586598;40;9977;-57
2021/04/28 05:11:33;;;;;;;;;19.33;16.00;;;;;7.10;47.67;99330.31;3595293;40;9874;-58
2021/04/28 05:14:02;;;;;;;;;16.00;15.67;;;;;8.72;46.35;99332.84;3596961;40;9914;-58
2021/04/28 05:16:32;;;;;;;;;21.67;19.00;;;;;8.80;45.60;99333.22;3596184;39;9828;-58
2021/04/28 05:19:00;;;;;;;;;22.33;20.33;;;;;8.82;46.33;99336.69;3596744;39;9888;-57
2021/04/28 05:21:27;;;;;;;;;16.33;15.33;;;;;7.60;51.65;99337.38;3596830;39;9898;-57
2021/04/28 05:23:54;;;;;;;;;18.00;15.00;;;;;8.23;47.76;99333.84;3597230;39;9871;-58
2021/04/28 05:26:21;;;;;;;;;23.00;16.00;;;;;9.14;46.41;99334.72;3597003;40;10092;-58
2021/04/28 05:28:47;;;;;;;;;20.00;14.67;;;;;8.31;46.91;99333.41;3597201;39;9829;-57
2021/04/28 05:31:14;;;;;;;;;21.67;18.00;;;;;8.46;47.06;99339.72;3597170;39;10178;-57
2021/04/28 05:33:41;;;;;;;;;19.67;15.67;;;;;8.18;46.18;99343.09;3594708;39;9978;-57
2021/04/28 05:36:09;;;;;;;;;19.33;18.33;;;;;8.20;47.40;99343.88;3598243;39;9905;-57
2021/04/28 05:38:37;;;;;;;;;24.00;18.00;;;;;8.40;45.79;99334.72;3598097;39;10753;-57
2021/04/28 05:41:04;;;;;;;;;19.67;19.00;;;;;9.49;45.25;99330.81;3598715;39;10122;-57
2021/04/28 05:43:32;;;;;;;;;16.67;16.00;;;;;9.72;43.10;99332.91;3588411;40;10440;-58
2021/04/28 05:46:01;;;;;;;;;22.00;16.33;;;;;9.17;44.93;99333.69;3588047;40;9920;-57
2021/04/28 05:48:28;;;;;;;;;16.00;13.67;;;;;10.06;42.86;99326.22;3594169;40;9840;-57
2021/04/28 05:50:55;;;;;;;;;20.00;16.33;;;;;9.23;44.15;99328.78;3608136;39;9729;-57
2021/04/28 05:53:22;;;;;;;;;19.33;17.00;;;;;9.54;43.80;99321.53;3608317;39;10309;-57
2021/04/28 05:55:49;;;;;;;;;17.67;15.00;;;;;8.48;46.26;99311.94;3606838;39;10115;-54
2021/04/28 05:58:16;;;;;;;;;22.00;20.67;;;;;8.66;46.18;99311.78;3591043;40;10115;-57
2021/04/28 06:00:43;;;;;;;;;16.33;15.33;;;;;9.33;46.87;99312.16;3597023;39;10078;-58
2021/04/28 06:03:10;;;;;;;;;19.67;16.00;;;;;8.46;46.80;99313.81;3588033;40;9890;-57
2021/04/28 06:05:37;;;;;;;;;24.00;17.00;;;;;9.22;44.62;99310.16;3588633;40;10013;-57
2021/04/28 06:08:04;;;;;;;;;20.67;19.00;;;;;8.70;46.03;99319.53;3592450;40;9926;-58
2021/04/28 06:10:31;;;;;;;;;23.00;19.00;;;;;9.58;43.64;99314.13;3589699;39;9909;-57
2021/04/28 06:12:57;;;;;;;;;22.33;17.67;;;;;9.56;44.97;99310.72;3588463;40;9915;-57
2021/04/28 06:15:24;;;;;;;;;20.67;19.00;;;;;10.03;44.62;99322.84;3587845;40;10161;-58
2021/04/28 06:17:51;;;;;;;;;22.00;17.00;;;;;9.65;45.48;99310.13;3588256;40;10100;-58
2021/04/28 06:20:19;;;;;;;;;22.67;17.67;;;;;9.06;46.62;99318.28;3588262;40;9922;-58
2021/04/28 06:22:46;;;;;;;;;21.00;19.33;;;;;9.93;45.67;99319.09;3588591;40;9869;-57
2021/04/28 06:25:14;;;;;;;;;17.00;16.33;;;;;9.82;45.04;99317.06;3588265;40;9907;-58
2021/04/28 06:27:42;;;;;;;;;22.67;17.67;;;;;9.98;45.01;99315.13;3588274;40;9964;-57
2021/04/28 06:30:11;;;;;;;;;9.33;9.33;;;;;10.82;42.22;99318.53;3588167;40;9807;-55
2021/04/28 06:32:38;;;;;;;;;21.00;16.67;;;;;10.96;42.57;99316.63;3588615;40;9759;-57
2021/04/28 06:35:07;;;;;;;;;29.33;18.67;;;;;15.23;34.97;99321.22;3587458;40;10535;-57
2021/04/28 06:37:34;;;;;;;;;21.25;20.00;;;;;17.41;31.58;99323.09;3589626;40;10697;-58
2021/04/28 06:40:01;;;;;;;;;18.75;16.25;;;;;15.78;32.48;99315.56;3587973;40;14263;-57
2021/04/28 06:42:28;;;;;;;;;19.25;18.50;;;;;16.40;32.30;99333.41;3587951;40;14028;-58
2021/04/28 06:44:55;;;;;;;;;19.50;17.00;;;;;17.05;31.14;99319.28;3593771;40;14636;-58
2021/04/28 06:47:22;;;;;;;;;14.00;12.00;;;;;16.50;32.83;99327.97;3597544;39;14556;-57
2021/04/28 06:49:49;;;;;;;;;15.00;14.75;;;;;16.98;31.64;99318.16;3601985;39;14036;-58
2021/04/28 06:52:16;;;;;;;;;22.25;20.75;;;;;16.72;30.64;99307.88;3607303;39;14237;-58
2021/04/28 06:54:43;;;;;;;;;17.25;17.25;;;;;15.66;32.30;99313.91;3598751;39;14111;-57
2021/04/28 06:57:09;;;;;;;;;19.50;16.50;;;;;15.27;33.43;99319.09;3597111;39;14211;-56
2021/04/28 06:59:36;;;;;;;;;20.75;18.00;;;;;16.24;32.14;99327.66;3593016;40;14058;-58
2021/04/28 07:02:03;;;;;;;;;17.50;17.00;;;;;15.85;31.90;99327.56;3591823;40;14031;-58
2021/04/28 07:04:31;;;;;;;;;22.00;17.25;;;;;15.62;32.95;99324.16;3592068;39;14269;-57
2021/04/28 07:06:59;;;;;;;;;21.75;17.00;;;;;16.82;30.88;99329.59;3587249;40;14101;-57
2021/04/28 07:09:26;;;;;;;;;19.00;16.25;;;;;16.44;31.21;99326.69;3587814;40;14092;-58
2021/04/28 07:11:52;;;;;;;;;16.25;16.25;;;;;16.41;31.57;99329.69;3588927;40;14043;-58
2021/04/28 07:14:19;;;;;;;;;16.00;15.50;;;;;17.29;31.03;99333.25;3591795;39;13915;-58
2021/04/28 07:16:46;;;;;;;;;15.75;15.75;;;;;14.77;34.98;99329.72;3593692;40;13962;-58
2021/04/28 07:19:13;;;;;;;;;16.75;15.50;;;;;14.08;35.95;99328.19;3589101;39;14707;-57
2021/04/28 07:21:40;;;;;;;;;21.50;15.50;;;;;11.64;39.77;99328.00;3587818;40;14065;-58
2021/04/28 07:24:07;;;;;;;;;21.75;17.75;;;;;11.81;40.06;99326.78;3592089;40;14061;-58
2021/04/28 07:26:35;;;;;;;;;18.00;15.75;;;;;11.74;40.53;99325.50;3587303;40;14056;-58
2021/04/28 07:29:02;;;;;;;;;17.25;17.25;;;;;11.30;41.17;99332.22;3587672;40;14083;-58
2021/04/28 07:31:30;;;;;;;;;21.00;16.75;;;;;11.74;41.81;99328.19;3587365;40;14039;-58
2021/04/28 07:33:59;;;;;;;;;20.75;15.50;;;;;12.16;41.50;99321.53;3593948;40;14034;-58
2021/04/28 07:36:27;;;;;;;;;21.00;17.25;;;;;12.29;41.15;99318.78;3597809;39;14016;-58
2021/04/28 07:38:55;;;;;;;;;20.50;18.25;;;;;12.06;39.63;99324.06;3592121;39;14082;-57
2021/04/28 07:41:21;;;;;;;;;21.50;20.75;;;;;12.43;40.83;99333.94;3597209;40;14056;-58
2021/04/28 07:43:48;;;;;;;;;23.75;20.00;;;;;12.22;40.69;99325.63;3596038;39;14070;-58
2021/04/28 07:46:15;;;;;;;;;19.25;16.75;;;;;12.22;39.87;99322.94;3587054;40;14045;-58
2021/04/28 07:48:42;;;;;;;;;19.25;14.25;;;;;12.20;40.44;99319.50;3588924;39;14066;-58
2021/04/28 07:51:09;;;;;;;;;21.00;16.50;;;;;12.23;39.20;99324.63;3607803;39;14261;-58
2021/04/28 07:53:36;;;;;;;;;22.25;17.75;;;;;12.61;39.27;99328.97;3604069;39;14567;-58
2021/04/28 07:56:03;;;;;;;;;19.25;19.00;;;;;12.37;40.36;99321.75;3596856;39;14045;-58
2021/04/28 07:58:30;;;;;;;;;20.00;16.00;;;;;12.26;39.97;99313.63;3597039;39;13985;-58
2021/04/28 08:00:56;;;;;;;;;18.50;16.50;;;;;12.50;39.42;99321.69;3587780;39;14055;-59
2021/04/28 08:03:23;;;;;;;;;14.75;14.25;;;;;12.11;37.89;99318.31;3589150;40;14047;-58
2021/04/28 08:05:50;;;;;;;;;19.00;15.75;;;;;12.34;37.49;99321.13;3595286;39;14021;-58
2021/04/28 08:08:17;;;;;;;;;19.00;18.25;;;;;12.83;38.02;99317.44;3590448;40;14021;-58
2021/04/28 08:10:44;;;;;;;;;23.50;19.00;;;;;13.26;38.56;99314.97;3598833;39;14210;-59
2021/04/28 08:13:11;;;;;;;;;21.00;19.00;;;;;13.50;37.33;99311.31;3597701;40;14056;-58
2021/04/28 08:15:40;;;;;;;;;20.25;17.00;;;;;13.41;37.50;99318.31;3588762;40;14063;-58
2021/04/28 08:18:07;;;;;;;;;19.50;13.50;;;;;13.90;37.50;99330.56;3594461;40;14018;-58
2021/04/28 08:20:38;;;;;;;;;16.25;16.25;;;;;13.58;36.92;99327.75;3596911;39;14479;-58
2021/04/28 08:23:06;;;;;;;;;15.25;13.25;;;;;13.30;36.45;99327.25;3596965;39;14500;-58
2021/04/28 08:25:34;;;;;;;;;16.25;15.50;;;;;13.44;36.57;99328.00;3597411;39;14035;-58
2021/04/28 08:28:01;;;;;;;;;14.50;14.00;;;;;13.50;36.78;99333.75;3596733;39;14062;-59
2021/04/28 08:30:28;;;;;;;;;16.00;15.00;;;;;13.38;35.12;99326.66;3596519;40;14055;-58
2021/04/28 08:33:11;;;;;;;;;17.50;16.00;;;;;13.32;35.76;99325.28;3597053;39;14050;-58
2021/04/28 08:35:38;;;;;;;;;15.25;15.00;;;;;13.26;36.42;99323.06;3595825;39;14252;-59
2021/04/28 08:38:05;;;;;;;;;18.00;14.25;;;;;13.37;35.72;99314.97;3597352;39;14042;-58
2021/04/28 08:40:33;;;;;;;;;18.00;15.25;;;;;13.30;36.61;99321.84;3593874;40;13979;-58
2021/04/28 08:43:00;;;;;;;;;18.25;15.00;;;;;13.07;36.34;99320.06;3596608;39;14590;-58
2021/04/28 08:45:27;;;;;;;;;20.25;18.25;;;;;13.03;37.26;99319.41;3596511;39;14016;-58
2021/04/28 08:47:54;;;;;;;;;19.25;15.50;;;;;13.02;37.85;99324.94;3596235;40;14084;-59
2021/04/28 08:50:21;;;;;;;;;15.50;14.00;;;;;13.06;37.31;99312.94;3602142;39;14037;-56
2021/04/28 08:52:52;;;;;;;;;16.25;14.25;;;;;13.31;36.72;99326.25;3598056;39;14048;-57
2021/04/28 08:55:19;;;;;;;;;33.50;29.00;;;;;13.60;36.10;99323.94;3586655;40;14041;-57
2021/04/28 08:57:47;;;;;;;;;17.00;14.25;;;;;13.44;35.62;99319.91;3587186;40;14274;-58
2021/04/28 09:00:15;;;;;;;;;17.50;15.75;;;;;13.58;36.31;99320.50;3586556;40;14038;-57
2021/04/28 09:02:54;;;;;;;;;16.50;16.00;;;;;13.18;34.84;99317.38;3593276;40;14041;-58
2021/04/28 09:05:21;;;;;;;;;20.00;17.50;;;;;13.57;35.93;99326.03;3596219;40;14018;-58
2021/04/28 09:07:49;;;;;;;;;19.00;12.75;;;;;13.90;34.24;99324.28;3593103;39;14190;-58
2021/04/28 09:10:23;;;;;;;;;19.25;14.25;;;;;13.89;34.00;99318.03;3588410;40;14167;-58
2021/04/28 09:13:06;;;;;;;;;18.50;13.00;;;;;13.87;35.44;99321.84;3587088;40;14041;-58
2021/04/28 09:15:42;;;;;;;;;14.00;10.75;;;;;13.79;33.99;99323.31;3593971;40;14457;-59
2021/04/28 09:18:13;;;;;;;;;16.50;13.00;;;;;14.00;34.99;99317.16;3586593;40;14095;-58
2021/04/28 09:20:47;;;;;;;;;21.25;17.50;;;;;14.24;35.39;99311.59;3592362;40;14228;-58
2021/04/28 09:23:21;;;;;;;;;18.25;17.25;;;;;14.07;36.52;99312.97;3591172;39;14259;-58
2021/04/28 09:25:51;;;;;;;;;20.25;18.00;;;;;13.70;36.95;99315.13;3586864;40;14032;-58
2021/04/28 09:28:36;;;;;;;;;19.50;17.00;;;;;13.52;37.23;99309.34;3586496;40;14162;-57
2021/04/28 09:31:06;;;;;;;;;24.25;17.25;;;;;13.88;36.54;99308.25;3586464;40;14052;-57
2021/04/28 09:33:49;;;;;;;;;17.00;15.50;;;;;13.84;35.92;99307.59;3586942;40;14047;-57
2021/04/28 09:36:26;;;;;;;;;16.75;15.75;;;;;13.86;35.75;99296.69;3586579;40;14053;-58
2021/04/28 09:38:57;;;;;;;;;17.00;13.25;;;;;14.03;35.12;99301.59;3590807;39;14128;-58
2021/04/28 09:41:38;;;;;;;;;16.50;13.25;;;;;13.92;36.24;99295.34;3591531;40;14009;-58
2021/04/28 09:44:21;;;;;;;;;16.75;11.25;;;;;14.26;34.50;99294.25;3596565;40;14040;-58
2021/04/28 09:47:16;;;;;;;;;10.00;6.00;;;;;14.32;34.45;99292.03;3603538;39;14102;-58
2021/04/28 09:49:44;;;;;;;;;20.00;15.00;;;;;14.70;35.25;99296.97;3600882;39;14174;-58
2021/04/28 09:52:12;;;;;;;;;16.50;13.00;;;;;14.46;34.81;99294.47;3606951;39;14024;-58
2021/04/28 09:54:43;;;;;;;;;17.50;15.75;;;;;14.52;34.16;99288.53;3606999;39;14057;-58
2021/04/28 09:57:12;;;;;;;;;13.75;11.50;;;;;15.13;34.28;99286.00;3606631;39;14074;-57
2021/04/28 09:59:57;;;;;;;;;13.50;11.75;;;;;15.14;34.03;99278.78;3605806;39;14188;-58
2021/04/28 10:02:30;;;;;;;;;15.75;12.75;;;;;14.62;33.99;99284.09;3586626;40;14060;-58
2021/04/28 10:05:20;;;;;;;;;11.75;11.25;;;;;15.01;32.63;99289.78;3587666;40;14055;-58
2021/04/28 10:07:53;;;;;;;;;13.00;10.50;;;;;15.13;33.53;99283.31;3586472;40;14116;-58
2021/04/28 10:10:22;;;;;;;;;11.00;9.75;;;;;14.97;32.43;99282.94;3585390;40;14050;-58
2021/04/28 10:12:49;;;;;;;;;11.00;10.25;;;;;15.00;32.76;99282.66;3586306;40;14041;-58
2021/04/28 10:15:18;;;;;;;;;15.00;13.75;;;;;15.10;33.50;99283.56;3586196;40;13071;-58
2021/04/28 10:17:46;;;;;;;;;10.75;10.75;;;;;15.02;33.34;99288.78;3586963;39;14549;-58
2021/04/28 10:20:15;;;;;;;;;14.00;13.25;;;;;14.58;33.26;99279.94;3592376;40;13033;-58
2021/04/28 10:22:43;;;;;;;;;11.50;10.00;;;;;15.30;33.30;99284.56;3598020;39;14066;-57
2021/04/28 10:25:12;;;;;;;;;12.00;11.00;;;;;15.91;33.78;99278.25;3597303;40;13989;-58
2021/04/28 10:27:39;;;;;;;;;12.50;11.75;;;;;15.83;33.72;99275.41;3596691;40;14030;-58
2021/04/28 10:30:08;;;;;;;;;12.25;10.75;;;;;16.20;34.56;99283.75;3587027;40;14038;-58
2021/04/28 10:32:35;;;;;;;;;15.75;14.00;;;;;15.90;33.25;99276.53;3595023;40;14520;-58
2021/04/28 10:35:32;;;;;;;;;15.00;15.00;;;;;15.65;32.99;99277.00;3595742;39;14617;-58
2021/04/28 10:37:59;;;;;;;;;17.00;16.00;;;;;16.31;34.32;99266.50;3587695;40;14147;-57
2021/04/28 10:40:27;;;;;;;;;14.75;14.00;;;;;16.84;33.55;99266.06;3587930;40;14058;-57
2021/04/28 10:42:55;;;;;;;;;17.00;16.00;;;;;17.04;32.97;99272.34;3588263;40;14051;-57
2021/04/28 10:45:22;;;;;;;;;15.50;13.50;;;;;15.50;34.00;99273.81;3587988;40;14021;-57
2021/04/28 10:47:55;;;;;;;;;14.50;14.25;;;;;15.34;34.13;99266.19;3589246;40;14080;-58
2021/04/28 10:50:45;;;;;;;;;18.00;15.25;;;;;16.46;33.84;99262.38;3597740;39;14505;-58
2021/04/28 10:53:28;;;;;;;;;14.25;14.00;;;;;15.94;34.83;99258.19;3590032;39;14726;-58
2021/04/28 10:56:07;;;;;;;;;16.50;14.25;;;;;15.85;34.20;99262.59;3588405;40;14206;-58
2021/04/28 10:58:48;;;;;;;;;16.50;15.25;;;;;16.08;34.43;99263.19;3593489;40;14018;-58
2021/04/28 11:01:23;;;;;;;;;19.25;14.00;;;;;16.77;33.01;99264.97;3597583;39;14054;-58
2021/04/28 11:03:55;;;;;;;;;16.00;14.50;;;;;17.39;31.28;99261.81;3597787;39;14063;-58
2021/04/28 11:06:28;;;;;;;;;11.00;9.50;;;;;15.74;31.54;99259.97;3597692;40;14053;-58
2021/04/28 11:08:55;;;;;;;;;15.75;14.00;;;;;16.27;33.03;99267.75;3597520;39;14033;-59
2021/04/28 11:11:31;;;;;;;;;14.25;14.00;;;;;16.14;33.18;99268.06;3588707;40;14027;-57
2021/04/28 11:14:10;;;;;;;;;15.00;15.00;;;;;16.11;33.64;99256.63;3587730;40;14026;-58
2021/04/28 11:16:52;;;;;;;;;14.75;13.50;;;;;16.00;32.90;99269.28;3587704;40;14542;-57
2021/04/28 11:19:38;;;;;;;;;13.50;12.00;;;;;17.21;33.05;99257.16;3596000;40;14113;-59
2021/04/28 11:22:10;;;;;;;;;18.75;13.75;;;;;17.20;32.59;99269.00;3593344;39;14213;-58
2021/04/28 11:25:12;;;;;;;;;19.75;15.25;;;;;16.37;31.93;99267.78;3604616;39;14029;-59
2021/04/28 11:28:03;;;;;;;;;13.75;13.00;;;;;16.59;32.29;99267.50;3587811;40;14045;-59
2021/04/28 11:30:41;;;;;;;;;15.00;13.25;;;;;16.72;32.30;99250.94;3587219;40;14101;-58
2021/04/28 11:33:15;;;;;;;;;19.00;15.00;;;;;16.65;32.55;99253.38;3597322;39;14024;-58
2021/04/28 11:36:07;;;;;;;;;19.00;15.75;;;;;16.49;32.76;99254.97;3597792;39;14019;-59